Hovedside
METAR-TAF:

METAR-TAF

Lufthavner :

Limón, Costa Rica

breddegrad: 10-00N, lengdegrad: 083-03W, høyde over havet: 5 m

Gjeldene værobservasjon

Denne rapporten ble laget for 11 timer og 37 minutter siden, klokken 00:00 UTC
Flau vind
Temperatur 25°C
Luftfuktighet 83%
Trykk 1015 hPa
Sikt 10 km eller mer
Brutte skyer i en høyde av 12000 ft

METAR: MRLM 260000Z 00000KT 9999 FEW02 BKN120 25/22 A2998

Tid: 05:37 (11:37 UTC)

Varsel

Denne rapporten ble laget for 27 minutter siden, klokken 11:10 UTC
Varsel gyldig fra 26. klokken 12 UTC til 27. klokken 12 UTC
Vind 5 kt fra Sørvest
Sikt 10 km eller mer
Få skyer i en høyde av 2000 ft
Brutte skyer i en høyde av 12000 ft
Midlertidig
fra 26. klokken 12 UTC til 26. klokken 17 UTC
Brutte skyer i en høyde av 2500 ft
duskregn
Midlertidig
fra 26. klokken 18 UTC til 26. klokken 22 UTC
Vind 7 kt fra Nordøst

TAF: MRLM 261110Z 2612/2712 23005KT 9999 FEW020 BKN120 TX30/2620Z TN21/2711Z TEMPO 2612/2617 DZ BKN025 TEMPO 2618/2622 05007KT

Værobservasjoner og værvarsel for over 4000 flyplasser (METAR- og TAF-rapporter).

Tilgjengelige stasjoner er representert av de røde og gule prikkene på kartet.

Hold musepekeren over prikken for å se navnet på stasjonen.

Klikk så for å se værobservasjoner og -varsler.

For å forandre kartet kan du klikke på den grønne knappen med svart kryss for å zoome inn, på den grønne knappen med strek for å zoome ut, eller på de grønne pilene for å se tilstøtende kart.


METAR-TAF: